<?xml version="1.0" encoding="UTF-8" standalone="no" ?>
<gpx xmlns="http://www.topografix.com/GPX/1/1" xmlns:xsi="http://www.w3.org/2001/XMLSchema-instance" xsi:schemaLocation="http://www.topografix.com/GPX/1/1 http://www.topografix.com/GPX/1/1/gpx.xsd" version="1.1" creator="VisuGPX - https://www.visugpx.com">
  <metadata>
    <name>Soissons - Margival</name>
  </metadata>
  <trk>
    <name><![CDATA[Sans titre]]></name>
    <trkseg>
      <trkpt lat="49.3926" lon="3.34137">
        <ele>43.523319244385</ele>
        <time>2021-02-14T18:53:28.000Z</time>
      </trkpt>
      <trkpt lat="49.40059" lon="3.34357">
        <ele>42.665679931641</ele>
        <time>2021-02-14T18:53:29.084Z</time>
      </trkpt>
      <trkpt lat="49.4006" lon="3.34355">
        <ele>42.679016113281</ele>
        <time>2021-02-14T18:53:30.170Z</time>
      </trkpt>
      <trkpt lat="49.40086" lon="3.34358">
        <ele>43.302909851074</ele>
        <time>2021-02-14T18:53:31.291Z</time>
      </trkpt>
      <trkpt lat="49.40115" lon="3.34357">
        <ele>43.998794555664</ele>
        <time>2021-02-14T18:53:32.451Z</time>
      </trkpt>
      <trkpt lat="49.40118" lon="3.34345">
        <ele>44.369293212891</ele>
        <time>2021-02-14T18:53:33.622Z</time>
      </trkpt>
      <trkpt lat="49.40126" lon="3.34343">
        <ele>45.20915222168</ele>
        <time>2021-02-14T18:53:34.804Z</time>
      </trkpt>
      <trkpt lat="49.40132" lon="3.3435">
        <ele>45.56436920166</ele>
        <time>2021-02-14T18:53:35.996Z</time>
      </trkpt>
      <trkpt lat="49.40134" lon="3.34355">
        <ele>45.63635635376</ele>
        <time>2021-02-14T18:53:37.193Z</time>
      </trkpt>
      <trkpt lat="49.40138" lon="3.34354">
        <ele>46.044288635254</ele>
        <time>2021-02-14T18:53:38.395Z</time>
      </trkpt>
      <trkpt lat="49.40194" lon="3.34308">
        <ele>54.255512237549</ele>
        <time>2021-02-14T18:53:39.682Z</time>
      </trkpt>
      <trkpt lat="49.40211" lon="3.34291">
        <ele>57.118110656738</ele>
        <time>2021-02-14T18:53:40.996Z</time>
      </trkpt>
      <trkpt lat="49.40218" lon="3.34284">
        <ele>58.209930419922</ele>
        <time>2021-02-14T18:53:42.321Z</time>
      </trkpt>
      <trkpt lat="49.40218" lon="3.34288">
        <ele>57.921977996826</ele>
        <time>2021-02-14T18:53:43.650Z</time>
      </trkpt>
      <trkpt lat="49.40221" lon="3.34314">
        <ele>56.30224609375</ele>
        <time>2021-02-14T18:53:45.002Z</time>
      </trkpt>
      <trkpt lat="49.40224" lon="3.34348">
        <ele>54.172080993652</ele>
        <time>2021-02-14T18:53:46.384Z</time>
      </trkpt>
      <trkpt lat="49.40225" lon="3.34373">
        <ele>55.155914306641</ele>
        <time>2021-02-14T18:53:47.788Z</time>
      </trkpt>
      <trkpt lat="49.40224" lon="3.34394">
        <ele>54.567790985107</ele>
        <time>2021-02-14T18:53:49.210Z</time>
      </trkpt>
      <trkpt lat="49.40218" lon="3.3446">
        <ele>52.706439971924</ele>
        <time>2021-02-14T18:53:50.690Z</time>
      </trkpt>
      <trkpt lat="49.40218" lon="3.34485">
        <ele>52.406490325928</ele>
        <time>2021-02-14T18:53:52.192Z</time>
      </trkpt>
      <trkpt lat="49.40223" lon="3.34526">
        <ele>52.551525115967</ele>
        <time>2021-02-14T18:53:53.730Z</time>
      </trkpt>
      <trkpt lat="49.40225" lon="3.34551">
        <ele>52.263572692871</ele>
        <time>2021-02-14T18:53:55.290Z</time>
      </trkpt>
      <trkpt lat="49.40224" lon="3.34634">
        <ele>50.905067443848</ele>
        <time>2021-02-14T18:53:56.922Z</time>
      </trkpt>
      <trkpt lat="49.4023" lon="3.34696">
        <ele>53.654174804688</ele>
        <time>2021-02-14T18:53:58.609Z</time>
      </trkpt>
      <trkpt lat="49.40234" lon="3.34741">
        <ele>54.5807762146</ele>
        <time>2021-02-14T18:54:00.335Z</time>
      </trkpt>
      <trkpt lat="49.40258" lon="3.34969">
        <ele>51.9797706604</ele>
        <time>2021-02-14T18:54:02.263Z</time>
      </trkpt>
      <trkpt lat="49.40251" lon="3.35102">
        <ele>48.901008605957</ele>
        <time>2021-02-14T18:54:04.307Z</time>
      </trkpt>
      <trkpt lat="49.40248" lon="3.351">
        <ele>48.785396575928</ele>
        <time>2021-02-14T18:54:06.356Z</time>
      </trkpt>
      <trkpt lat="49.40235" lon="3.35144">
        <ele>48.317474365234</ele>
        <time>2021-02-14T18:54:08.447Z</time>
      </trkpt>
      <trkpt lat="49.40229" lon="3.35171">
        <ele>48.101509094238</ele>
        <time>2021-02-14T18:54:10.563Z</time>
      </trkpt>
      <trkpt lat="49.40238" lon="3.35181">
        <ele>48.425453186035</ele>
        <time>2021-02-14T18:54:12.693Z</time>
      </trkpt>
      <trkpt lat="49.40246" lon="3.35194">
        <ele>48.713405609131</ele>
        <time>2021-02-14T18:54:14.839Z</time>
      </trkpt>
      <trkpt lat="49.40252" lon="3.35221">
        <ele>48.929370880127</ele>
        <time>2021-02-14T18:54:17.010Z</time>
      </trkpt>
      <trkpt lat="49.40252" lon="3.35228">
        <ele>48.929370880127</ele>
        <time>2021-02-14T18:54:19.187Z</time>
      </trkpt>
      <trkpt lat="49.40257" lon="3.35228">
        <ele>49.109340667725</ele>
        <time>2021-02-14T18:54:21.371Z</time>
      </trkpt>
      <trkpt lat="49.40284" lon="3.35235">
        <ele>50.135299682617</ele>
        <time>2021-02-14T18:54:23.591Z</time>
      </trkpt>
      <trkpt lat="49.40316" lon="3.35247">
        <ele>52.054977416992</ele>
        <time>2021-02-14T18:54:25.855Z</time>
      </trkpt>
      <trkpt lat="49.4034" lon="3.35253">
        <ele>53.494739532471</ele>
        <time>2021-02-14T18:54:28.152Z</time>
      </trkpt>
      <trkpt lat="49.40379" lon="3.35265">
        <ele>55.51948928833</ele>
        <time>2021-02-14T18:54:30.502Z</time>
      </trkpt>
      <trkpt lat="49.40392" lon="3.35265">
        <ele>55.987411499023</ele>
        <time>2021-02-14T18:54:32.869Z</time>
      </trkpt>
      <trkpt lat="49.40408" lon="3.35259">
        <ele>56.419338226318</ele>
        <time>2021-02-14T18:54:35.258Z</time>
      </trkpt>
      <trkpt lat="49.4043" lon="3.35251">
        <ele>57.019241333008</ele>
        <time>2021-02-14T18:54:37.677Z</time>
      </trkpt>
      <trkpt lat="49.4044" lon="3.35252">
        <ele>57.53902053833</ele>
        <time>2021-02-14T18:54:40.110Z</time>
      </trkpt>
      <trkpt lat="49.40454" lon="3.35258">
        <ele>58.274703979492</ele>
        <time>2021-02-14T18:54:42.562Z</time>
      </trkpt>
      <trkpt lat="49.4049" lon="3.35276">
        <ele>60.061614990234</ele>
        <time>2021-02-14T18:54:45.064Z</time>
      </trkpt>
      <trkpt lat="49.40524" lon="3.35292">
        <ele>62.053283691406</ele>
        <time>2021-02-14T18:54:47.614Z</time>
      </trkpt>
      <trkpt lat="49.40555" lon="3.35308">
        <ele>64.215492248535</ele>
        <time>2021-02-14T18:54:50.208Z</time>
      </trkpt>
      <trkpt lat="49.40571" lon="3.3532">
        <ele>65.559265136719</ele>
        <time>2021-02-14T18:54:52.825Z</time>
      </trkpt>
      <trkpt lat="49.40586" lon="3.35331">
        <ele>66.807060241699</ele>
        <time>2021-02-14T18:54:55.465Z</time>
      </trkpt>
      <trkpt lat="49.4059" lon="3.35324">
        <ele>66.663078308105</ele>
        <time>2021-02-14T18:54:58.113Z</time>
      </trkpt>
      <trkpt lat="49.40649" lon="3.35368">
        <ele>70.473533630371</ele>
        <time>2021-02-14T18:55:00.849Z</time>
      </trkpt>
      <trkpt lat="49.40673" lon="3.35489">
        <ele>74.782585144043</ele>
        <time>2021-02-14T18:55:03.695Z</time>
      </trkpt>
      <trkpt lat="49.40679" lon="3.35623">
        <ele>79.389503479004</ele>
        <time>2021-02-14T18:55:06.658Z</time>
      </trkpt>
      <trkpt lat="49.40684" lon="3.35729">
        <ele>78.308242797852</ele>
        <time>2021-02-14T18:55:09.714Z</time>
      </trkpt>
      <trkpt lat="49.40662" lon="3.35738">
        <ele>75.664840698242</ele>
        <time>2021-02-14T18:55:12.801Z</time>
      </trkpt>
      <trkpt lat="49.40681" lon="3.35839">
        <ele>72.031356811523</ele>
        <time>2021-02-14T18:55:15.979Z</time>
      </trkpt>
      <trkpt lat="49.40746" lon="3.35907">
        <ele>71.704322814941</ele>
        <time>2021-02-14T18:55:19.263Z</time>
      </trkpt>
      <trkpt lat="49.40646" lon="3.36119">
        <ele>58.437072753906</ele>
        <time>2021-02-14T18:55:22.775Z</time>
      </trkpt>
      <trkpt lat="49.4067" lon="3.36151">
        <ele>58.990627288818</ele>
        <time>2021-02-14T18:55:26.330Z</time>
      </trkpt>
      <trkpt lat="49.40755" lon="3.3626">
        <ele>58.368339538574</ele>
        <time>2021-02-14T18:55:30.033Z</time>
      </trkpt>
      <trkpt lat="49.40759" lon="3.36265">
        <ele>58.266448974609</ele>
        <time>2021-02-14T18:55:33.743Z</time>
      </trkpt>
      <trkpt lat="49.40764" lon="3.36255">
        <ele>58.326438903809</ele>
        <time>2021-02-14T18:55:37.464Z</time>
      </trkpt>
      <trkpt lat="49.40777" lon="3.36241">
        <ele>59.673950195312</ele>
        <time>2021-02-14T18:55:41.206Z</time>
      </trkpt>
      <trkpt lat="49.40783" lon="3.36236">
        <ele>60.453819274902</ele>
        <time>2021-02-14T18:55:44.957Z</time>
      </trkpt>
      <trkpt lat="49.40802" lon="3.36226">
        <ele>62.433486938477</ele>
        <time>2021-02-14T18:55:48.735Z</time>
      </trkpt>
      <trkpt lat="49.40813" lon="3.36213">
        <ele>64.185195922852</ele>
        <time>2021-02-14T18:55:52.531Z</time>
      </trkpt>
      <trkpt lat="49.40827" lon="3.36196">
        <ele>66.090423583984</ele>
        <time>2021-02-14T18:55:56.351Z</time>
      </trkpt>
      <trkpt lat="49.40842" lon="3.3618">
        <ele>67.962112426758</ele>
        <time>2021-02-14T18:56:00.196Z</time>
      </trkpt>
      <trkpt lat="49.40857" lon="3.36169">
        <ele>69.844108581543</ele>
        <time>2021-02-14T18:56:04.063Z</time>
      </trkpt>
      <trkpt lat="49.40877" lon="3.36151">
        <ele>75.321502685547</ele>
        <time>2021-02-14T18:56:07.961Z</time>
      </trkpt>
      <trkpt lat="49.4088" lon="3.3615">
        <ele>75.813423156738</ele>
        <time>2021-02-14T18:56:11.863Z</time>
      </trkpt>
      <trkpt lat="49.4088" lon="3.36149">
        <ele>75.981391906738</ele>
        <time>2021-02-14T18:56:15.766Z</time>
      </trkpt>
      <trkpt lat="49.40908" lon="3.36147">
        <ele>79.340835571289</ele>
        <time>2021-02-14T18:56:19.706Z</time>
      </trkpt>
      <trkpt lat="49.40944" lon="3.36145">
        <ele>83.186073303223</ele>
        <time>2021-02-14T18:56:23.694Z</time>
      </trkpt>
      <trkpt lat="49.40976" lon="3.3615">
        <ele>85.148010253906</ele>
        <time>2021-02-14T18:56:27.725Z</time>
      </trkpt>
      <trkpt lat="49.40997" lon="3.3616">
        <ele>85.351982116699</ele>
        <time>2021-02-14T18:56:31.785Z</time>
      </trkpt>
      <trkpt lat="49.41044" lon="3.36184">
        <ele>85.478477478027</ele>
        <time>2021-02-14T18:56:35.912Z</time>
      </trkpt>
      <trkpt lat="49.41066" lon="3.36192">
        <ele>86.126373291016</ele>
        <time>2021-02-14T18:56:40.069Z</time>
      </trkpt>
      <trkpt lat="49.41076" lon="3.36194">
        <ele>86.558303833008</ele>
        <time>2021-02-14T18:56:44.239Z</time>
      </trkpt>
      <trkpt lat="49.41092" lon="3.36191">
        <ele>87.770095825195</ele>
        <time>2021-02-14T18:56:48.431Z</time>
      </trkpt>
      <trkpt lat="49.41096" lon="3.36195">
        <ele>87.674118041992</ele>
        <time>2021-02-14T18:56:52.629Z</time>
      </trkpt>
      <trkpt lat="49.41096" lon="3.36197">
        <ele>87.506141662598</ele>
        <time>2021-02-14T18:56:56.829Z</time>
      </trkpt>
      <trkpt lat="49.41095" lon="3.36257">
        <ele>82.715026855469</ele>
        <time>2021-02-14T18:57:01.081Z</time>
      </trkpt>
      <trkpt lat="49.41092" lon="3.36311">
        <ele>78.808242797852</ele>
        <time>2021-02-14T18:57:05.380Z</time>
      </trkpt>
      <trkpt lat="49.41073" lon="3.36417">
        <ele>72.168937683105</ele>
        <time>2021-02-14T18:57:09.775Z</time>
      </trkpt>
      <trkpt lat="49.41068" lon="3.36459">
        <ele>68.753067016602</ele>
        <time>2021-02-14T18:57:14.207Z</time>
      </trkpt>
      <trkpt lat="49.41066" lon="3.36482">
        <ele>66.722953796387</ele>
        <time>2021-02-14T18:57:18.659Z</time>
      </trkpt>
      <trkpt lat="49.41062" lon="3.36509">
        <ele>64.45532989502</ele>
        <time>2021-02-14T18:57:23.136Z</time>
      </trkpt>
      <trkpt lat="49.41055" lon="3.36515">
        <ele>63.951416015625</ele>
        <time>2021-02-14T18:57:27.623Z</time>
      </trkpt>
      <trkpt lat="49.41044" lon="3.36515">
        <ele>63.951416015625</ele>
        <time>2021-02-14T18:57:32.125Z</time>
      </trkpt>
      <trkpt lat="49.41059" lon="3.36528">
        <ele>62.859596252441</ele>
        <time>2021-02-14T18:57:36.650Z</time>
      </trkpt>
      <trkpt lat="49.41066" lon="3.36535">
        <ele>62.27169418335</ele>
        <time>2021-02-14T18:57:41.186Z</time>
      </trkpt>
      <trkpt lat="49.41084" lon="3.36546">
        <ele>61.347846984863</ele>
        <time>2021-02-14T18:57:45.748Z</time>
      </trkpt>
      <trkpt lat="49.41101" lon="3.36555">
        <ele>60.591976165771</ele>
        <time>2021-02-14T18:57:50.334Z</time>
      </trkpt>
      <trkpt lat="49.41121" lon="3.36566">
        <ele>59.73751449585</ele>
        <time>2021-02-14T18:57:54.948Z</time>
      </trkpt>
      <trkpt lat="49.41136" lon="3.3657">
        <ele>59.581539154053</ele>
        <time>2021-02-14T18:57:59.583Z</time>
      </trkpt>
      <trkpt lat="49.41151" lon="3.36579">
        <ele>59.005638122559</ele>
        <time>2021-02-14T18:58:04.239Z</time>
      </trkpt>
      <trkpt lat="49.41205" lon="3.36598">
        <ele>58.002773284912</ele>
        <time>2021-02-14T18:58:08.969Z</time>
      </trkpt>
      <trkpt lat="49.4124" lon="3.36612">
        <ele>58.170745849609</ele>
        <time>2021-02-14T18:58:13.747Z</time>
      </trkpt>
      <trkpt lat="49.41265" lon="3.36623">
        <ele>58.302722930908</ele>
        <time>2021-02-14T18:58:18.560Z</time>
      </trkpt>
      <trkpt lat="49.41275" lon="3.36624">
        <ele>58.314723968506</ele>
        <time>2021-02-14T18:58:23.386Z</time>
      </trkpt>
      <trkpt lat="49.41324" lon="3.36645">
        <ele>58.566680908203</ele>
        <time>2021-02-14T18:58:28.280Z</time>
      </trkpt>
      <trkpt lat="49.41364" lon="3.36664">
        <ele>58.7946434021</ele>
        <time>2021-02-14T18:58:33.230Z</time>
      </trkpt>
      <trkpt lat="49.41414" lon="3.36684">
        <ele>60.273406982422</ele>
        <time>2021-02-14T18:58:38.249Z</time>
      </trkpt>
      <trkpt lat="49.41484" lon="3.36708">
        <ele>61.967662811279</ele>
        <time>2021-02-14T18:58:43.364Z</time>
      </trkpt>
      <trkpt lat="49.41496" lon="3.36714">
        <ele>62.183628082275</ele>
        <time>2021-02-14T18:58:48.496Z</time>
      </trkpt>
      <trkpt lat="49.41512" lon="3.36718">
        <ele>62.327606201172</ele>
        <time>2021-02-14T18:58:53.649Z</time>
      </trkpt>
      <trkpt lat="49.41536" lon="3.36726">
        <ele>62.61555480957</ele>
        <time>2021-02-14T18:58:58.835Z</time>
      </trkpt>
      <trkpt lat="49.41623" lon="3.36764">
        <ele>63.988883972168</ele>
        <time>2021-02-14T18:59:04.142Z</time>
      </trkpt>
      <trkpt lat="49.41708" lon="3.36805">
        <ele>65.122444152832</ele>
        <time>2021-02-14T18:59:09.568Z</time>
      </trkpt>
      <trkpt lat="49.41762" lon="3.36837">
        <ele>64.330581665039</ele>
        <time>2021-02-14T18:59:15.071Z</time>
      </trkpt>
      <trkpt lat="49.41809" lon="3.36866">
        <ele>64</ele>
        <time>2021-02-14T18:59:20.642Z</time>
      </trkpt>
      <trkpt lat="49.41886" lon="3.36927">
        <ele>63.25643157959</ele>
        <time>2021-02-14T18:59:26.328Z</time>
      </trkpt>
      <trkpt lat="49.41919" lon="3.3696">
        <ele>63.452831268311</ele>
        <time>2021-02-14T18:59:32.067Z</time>
      </trkpt>
      <trkpt lat="49.41963" lon="3.37008">
        <ele>64.516120910645</ele>
        <time>2021-02-14T18:59:37.878Z</time>
      </trkpt>
      <trkpt lat="49.41993" lon="3.37042">
        <ele>65.458015441895</ele>
        <time>2021-02-14T18:59:43.739Z</time>
      </trkpt>
      <trkpt lat="49.42012" lon="3.37064">
        <ele>66.021926879883</ele>
        <time>2021-02-14T18:59:49.632Z</time>
      </trkpt>
      <trkpt lat="49.42027" lon="3.37088">
        <ele>66.705810546875</ele>
        <time>2021-02-14T18:59:55.554Z</time>
      </trkpt>
      <trkpt lat="49.42017" lon="3.3709">
        <ele>67.242568969727</ele>
        <time>2021-02-14T19:00:01.489Z</time>
      </trkpt>
      <trkpt lat="49.42004" lon="3.37093">
        <ele>68.274391174316</ele>
        <time>2021-02-14T19:00:07.442Z</time>
      </trkpt>
      <trkpt lat="49.41999" lon="3.37093">
        <ele>68.574340820312</ele>
        <time>2021-02-14T19:00:13.401Z</time>
      </trkpt>
      <trkpt lat="49.41995" lon="3.37109">
        <ele>69.489311218262</ele>
        <time>2021-02-14T19:00:19.375Z</time>
      </trkpt>
      <trkpt lat="49.41997" lon="3.37123">
        <ele>69.705276489258</ele>
        <time>2021-02-14T19:00:25.362Z</time>
      </trkpt>
      <trkpt lat="49.42036" lon="3.37176">
        <ele>68.589897155762</ele>
        <time>2021-02-14T19:00:31.418Z</time>
      </trkpt>
      <trkpt lat="49.42053" lon="3.3721">
        <ele>68.370025634766</ele>
        <time>2021-02-14T19:00:37.511Z</time>
      </trkpt>
      <trkpt lat="49.42071" lon="3.37261">
        <ele>69.089904785156</ele>
        <time>2021-02-14T19:00:43.655Z</time>
      </trkpt>
      <trkpt lat="49.42082" lon="3.3729">
        <ele>69.731239318848</ele>
        <time>2021-02-14T19:00:49.828Z</time>
      </trkpt>
      <trkpt lat="49.42103" lon="3.37325">
        <ele>69.815223693848</ele>
        <time>2021-02-14T19:00:56.043Z</time>
      </trkpt>
      <trkpt lat="49.42139" lon="3.37387">
        <ele>71.105918884277</ele>
        <time>2021-02-14T19:01:02.330Z</time>
      </trkpt>
      <trkpt lat="49.42149" lon="3.37409">
        <ele>72.161743164062</ele>
        <time>2021-02-14T19:01:08.640Z</time>
      </trkpt>
      <trkpt lat="49.42166" lon="3.37453">
        <ele>73.625068664551</ele>
        <time>2021-02-14T19:01:14.995Z</time>
      </trkpt>
      <trkpt lat="49.42177" lon="3.37478">
        <ele>73.673057556152</ele>
        <time>2021-02-14T19:01:21.376Z</time>
      </trkpt>
      <trkpt lat="49.42191" lon="3.37503">
        <ele>73.325119018555</ele>
        <time>2021-02-14T19:01:27.786Z</time>
      </trkpt>
      <trkpt lat="49.42222" lon="3.37548">
        <ele>73.050086975098</ele>
        <time>2021-02-14T19:01:34.253Z</time>
      </trkpt>
      <trkpt lat="49.42237" lon="3.37568">
        <ele>72.990097045898</ele>
        <time>2021-02-14T19:01:40.746Z</time>
      </trkpt>
      <trkpt lat="49.42254" lon="3.37582">
        <ele>72.402191162109</ele>
        <time>2021-02-14T19:01:47.265Z</time>
      </trkpt>
      <trkpt lat="49.42267" lon="3.37596">
        <ele>72.150238037109</ele>
        <time>2021-02-14T19:01:53.805Z</time>
      </trkpt>
      <trkpt lat="49.42274" lon="3.37611">
        <ele>72.462181091309</ele>
        <time>2021-02-14T19:02:00.361Z</time>
      </trkpt>
      <trkpt lat="49.42288" lon="3.37649">
        <ele>73.637054443359</ele>
        <time>2021-02-14T19:02:06.955Z</time>
      </trkpt>
      <trkpt lat="49.42297" lon="3.37679">
        <ele>74.788856506348</ele>
        <time>2021-02-14T19:02:13.578Z</time>
      </trkpt>
      <trkpt lat="49.42311" lon="3.37713">
        <ele>74.813209533691</ele>
        <time>2021-02-14T19:02:20.236Z</time>
      </trkpt>
      <trkpt lat="49.42312" lon="3.37716">
        <ele>74.909194946289</ele>
        <time>2021-02-14T19:02:26.897Z</time>
      </trkpt>
      <trkpt lat="49.42354" lon="3.37834">
        <ele>76.700012207031</ele>
        <time>2021-02-14T19:02:33.675Z</time>
      </trkpt>
      <trkpt lat="49.42375" lon="3.37897">
        <ele>77.419898986816</ele>
        <time>2021-02-14T19:02:40.514Z</time>
      </trkpt>
      <trkpt lat="49.42383" lon="3.37921">
        <ele>77.995803833008</ele>
        <time>2021-02-14T19:02:47.377Z</time>
      </trkpt>
      <trkpt lat="49.42412" lon="3.38012">
        <ele>75.647171020508</ele>
        <time>2021-02-14T19:02:54.328Z</time>
      </trkpt>
      <trkpt lat="49.42434" lon="3.38068">
        <ele>72.783767700195</ele>
        <time>2021-02-14T19:03:01.336Z</time>
      </trkpt>
      <trkpt lat="49.42454" lon="3.38119">
        <ele>73.708045959473</ele>
        <time>2021-02-14T19:03:08.396Z</time>
      </trkpt>
      <trkpt lat="49.42461" lon="3.38139">
        <ele>76.071655273438</ele>
        <time>2021-02-14T19:03:15.476Z</time>
      </trkpt>
      <trkpt lat="49.42473" lon="3.38186">
        <ele>81.66185760498</ele>
        <time>2021-02-14T19:03:22.600Z</time>
      </trkpt>
      <trkpt lat="49.42491" lon="3.38239">
        <ele>84.19157409668</ele>
        <time>2021-02-14T19:03:29.776Z</time>
      </trkpt>
      <trkpt lat="49.42506" lon="3.38284">
        <ele>85.245544433594</ele>
        <time>2021-02-14T19:03:36.996Z</time>
      </trkpt>
      <trkpt lat="49.42514" lon="3.38316">
        <ele>84.093734741211</ele>
        <time>2021-02-14T19:03:44.245Z</time>
      </trkpt>
      <trkpt lat="49.42516" lon="3.3834">
        <ele>84.191139221191</ele>
        <time>2021-02-14T19:03:51.515Z</time>
      </trkpt>
      <trkpt lat="49.42524" lon="3.38378">
        <ele>80.239044189453</ele>
        <time>2021-02-14T19:03:58.820Z</time>
      </trkpt>
      <trkpt lat="49.42535" lon="3.3842">
        <ele>74.819847106934</ele>
        <time>2021-02-14T19:04:06.165Z</time>
      </trkpt>
      <trkpt lat="49.42554" lon="3.38498">
        <ele>70.804100036621</ele>
        <time>2021-02-14T19:04:13.582Z</time>
      </trkpt>
      <trkpt lat="49.42576" lon="3.38563">
        <ele>71.262428283691</ele>
        <time>2021-02-14T19:04:21.063Z</time>
      </trkpt>
      <trkpt lat="49.42594" lon="3.38621">
        <ele>73.888763427734</ele>
        <time>2021-02-14T19:04:28.600Z</time>
      </trkpt>
      <trkpt lat="49.42608" lon="3.38681">
        <ele>77.236419677734</ele>
        <time>2021-02-14T19:04:36.192Z</time>
      </trkpt>
      <trkpt lat="49.42625" lon="3.38758">
        <ele>80.677253723145</ele>
        <time>2021-02-14T19:04:43.855Z</time>
      </trkpt>
      <trkpt lat="49.42629" lon="3.38796">
        <ele>82.996955871582</ele>
        <time>2021-02-14T19:04:51.552Z</time>
      </trkpt>
      <trkpt lat="49.42634" lon="3.38809">
        <ele>83.488868713379</ele>
        <time>2021-02-14T19:04:59.262Z</time>
      </trkpt>
      <trkpt lat="49.42638" lon="3.38813">
        <ele>83.34489440918</ele>
        <time>2021-02-14T19:05:06.978Z</time>
      </trkpt>
      <trkpt lat="49.42643" lon="3.38811">
        <ele>82.577018737793</ele>
        <time>2021-02-14T19:05:14.701Z</time>
      </trkpt>
      <trkpt lat="49.42655" lon="3.38804">
        <ele>80.557266235352</ele>
        <time>2021-02-14T19:05:22.441Z</time>
      </trkpt>
      <trkpt lat="49.42666" lon="3.38798">
        <ele>79.141502380371</ele>
        <time>2021-02-14T19:05:30.197Z</time>
      </trkpt>
      <trkpt lat="49.42674" lon="3.38798">
        <ele>78.373634338379</ele>
        <time>2021-02-14T19:05:37.963Z</time>
      </trkpt>
      <trkpt lat="49.42681" lon="3.38808">
        <ele>78.301643371582</ele>
        <time>2021-02-14T19:05:45.742Z</time>
      </trkpt>
      <trkpt lat="49.4269" lon="3.38838">
        <ele>79.237487792969</ele>
        <time>2021-02-14T19:05:53.550Z</time>
      </trkpt>
      <trkpt lat="49.42699" lon="3.38863">
        <ele>79.155937194824</ele>
        <time>2021-02-14T19:06:01.383Z</time>
      </trkpt>
      <trkpt lat="49.42705" lon="3.38872">
        <ele>78.544044494629</ele>
        <time>2021-02-14T19:06:09.227Z</time>
      </trkpt>
      <trkpt lat="49.42714" lon="3.38873">
        <ele>77.476219177246</ele>
        <time>2021-02-14T19:06:17.083Z</time>
      </trkpt>
      <trkpt lat="49.42749" lon="3.38869">
        <ele>72.525131225586</ele>
        <time>2021-02-14T19:06:24.986Z</time>
      </trkpt>
      <trkpt lat="49.42767" lon="3.38862">
        <ele>69.681610107422</ele>
        <time>2021-02-14T19:06:32.914Z</time>
      </trkpt>
      <trkpt lat="49.42784" lon="3.38852">
        <ele>67.116744995117</ele>
        <time>2021-02-14T19:06:40.866Z</time>
      </trkpt>
      <trkpt lat="49.42792" lon="3.38844">
        <ele>66.900566101074</ele>
        <time>2021-02-14T19:06:48.831Z</time>
      </trkpt>
      <trkpt lat="49.42814" lon="3.38813">
        <ele>66.156692504883</ele>
        <time>2021-02-14T19:06:56.835Z</time>
      </trkpt>
      <trkpt lat="49.4284" lon="3.3878">
        <ele>65.876358032227</ele>
        <time>2021-02-14T19:07:04.885Z</time>
      </trkpt>
      <trkpt lat="49.42846" lon="3.38761">
        <ele>65.811485290527</ele>
        <time>2021-02-14T19:07:12.953Z</time>
      </trkpt>
      <trkpt lat="49.42853" lon="3.38729">
        <ele>65.441184997559</ele>
        <time>2021-02-14T19:07:21.050Z</time>
      </trkpt>
      <trkpt lat="49.42862" lon="3.38691">
        <ele>64.313369750977</ele>
        <time>2021-02-14T19:07:29.182Z</time>
      </trkpt>
      <trkpt lat="49.42872" lon="3.38668">
        <ele>64.39501953125</ele>
        <time>2021-02-14T19:07:37.339Z</time>
      </trkpt>
      <trkpt lat="49.42885" lon="3.3865">
        <ele>65.078903198242</ele>
        <time>2021-02-14T19:07:45.519Z</time>
      </trkpt>
      <trkpt lat="49.429" lon="3.38632">
        <ele>65.863265991211</ele>
        <time>2021-02-14T19:07:53.724Z</time>
      </trkpt>
      <trkpt lat="49.42921" lon="3.38614">
        <ele>68.706787109375</ele>
        <time>2021-02-14T19:08:01.961Z</time>
      </trkpt>
      <trkpt lat="49.42931" lon="3.38614">
        <ele>69.546646118164</ele>
        <time>2021-02-14T19:08:10.212Z</time>
      </trkpt>
      <trkpt lat="49.42941" lon="3.38621">
        <ele>69.966575622559</ele>
        <time>2021-02-14T19:08:18.477Z</time>
      </trkpt>
      <trkpt lat="49.42952" lon="3.3863">
        <ele>70.350517272949</ele>
        <time>2021-02-14T19:08:26.759Z</time>
      </trkpt>
      <trkpt lat="49.4296" lon="3.3864">
        <ele>70.422500610352</ele>
        <time>2021-02-14T19:08:35.055Z</time>
      </trkpt>
      <trkpt lat="49.42968" lon="3.38653">
        <ele>70.314521789551</ele>
        <time>2021-02-14T19:08:43.366Z</time>
      </trkpt>
      <trkpt lat="49.42976" lon="3.38651">
        <ele>71.106391906738</ele>
        <time>2021-02-14T19:08:51.688Z</time>
      </trkpt>
      <trkpt lat="49.42989" lon="3.3866">
        <ele>71.658294677734</ele>
        <time>2021-02-14T19:09:00.029Z</time>
      </trkpt>
      <trkpt lat="49.43003" lon="3.38673">
        <ele>72.054229736328</ele>
        <time>2021-02-14T19:09:08.392Z</time>
      </trkpt>
      <trkpt lat="49.43016" lon="3.38689">
        <ele>72.367393493652</ele>
        <time>2021-02-14T19:09:16.777Z</time>
      </trkpt>
      <trkpt lat="49.43055" lon="3.38779">
        <ele>71.30931854248</ele>
        <time>2021-02-14T19:09:25.256Z</time>
      </trkpt>
      <trkpt lat="49.43067" lon="3.38808">
        <ele>71.100860595703</ele>
        <time>2021-02-14T19:09:33.765Z</time>
      </trkpt>
      <trkpt lat="49.43081" lon="3.38846">
        <ele>71.388809204102</ele>
        <time>2021-02-14T19:09:42.312Z</time>
      </trkpt>
      <trkpt lat="49.43099" lon="3.38906">
        <ele>71.892730712891</ele>
        <time>2021-02-14T19:09:50.917Z</time>
      </trkpt>
      <trkpt lat="49.43121" lon="3.38958">
        <ele>71.355010986328</ele>
        <time>2021-02-14T19:09:59.576Z</time>
      </trkpt>
      <trkpt lat="49.43131" lon="3.38973">
        <ele>70.575141906738</ele>
        <time>2021-02-14T19:10:08.253Z</time>
      </trkpt>
      <trkpt lat="49.43099" lon="3.3904">
        <ele>69.593299865723</ele>
        <time>2021-02-14T19:10:17.003Z</time>
      </trkpt>
      <trkpt lat="49.42965" lon="3.39148">
        <ele>68.218139648438</ele>
        <time>2021-02-14T19:10:25.955Z</time>
      </trkpt>
      <trkpt lat="49.42965" lon="3.39149">
        <ele>68.199554443359</ele>
        <time>2021-02-14T19:10:34.908Z</time>
      </trkpt>
      <trkpt lat="49.42946" lon="3.39207">
        <ele>68.442611694336</ele>
        <time>2021-02-14T19:10:43.917Z</time>
      </trkpt>
      <trkpt lat="49.43041" lon="3.39272">
        <ele>68.02507019043</ele>
        <time>2021-02-14T19:10:53.065Z</time>
      </trkpt>
      <trkpt lat="49.43051" lon="3.39277">
        <ele>67.905090332031</ele>
        <time>2021-02-14T19:11:02.227Z</time>
      </trkpt>
      <trkpt lat="49.43081" lon="3.39301">
        <ele>67.977081298828</ele>
        <time>2021-02-14T19:11:11.434Z</time>
      </trkpt>
      <trkpt lat="49.43099" lon="3.39317">
        <ele>68.097061157227</ele>
        <time>2021-02-14T19:11:20.669Z</time>
      </trkpt>
      <trkpt lat="49.4315" lon="3.39378">
        <ele>69.546089172363</ele>
        <time>2021-02-14T19:11:29.990Z</time>
      </trkpt>
      <trkpt lat="49.43162" lon="3.39394">
        <ele>70.074005126953</ele>
        <time>2021-02-14T19:11:39.332Z</time>
      </trkpt>
      <trkpt lat="49.43149" lon="3.3939">
        <ele>69.902519226074</ele>
        <time>2021-02-14T19:11:48.692Z</time>
      </trkpt>
      <trkpt lat="49.43122" lon="3.39382">
        <ele>69.48258972168</ele>
        <time>2021-02-14T19:11:58.089Z</time>
      </trkpt>
      <trkpt lat="49.43113" lon="3.39382">
        <ele>69.405204772949</ele>
        <time>2021-02-14T19:12:07.498Z</time>
      </trkpt>
      <trkpt lat="49.43114" lon="3.39404">
        <ele>69.669166564941</ele>
        <time>2021-02-14T19:12:16.926Z</time>
      </trkpt>
      <trkpt lat="49.43118" lon="3.39493">
        <ele>70.854553222656</ele>
        <time>2021-02-14T19:12:26.432Z</time>
      </trkpt>
      <trkpt lat="49.43123" lon="3.3957">
        <ele>71.446914672852</ele>
        <time>2021-02-14T19:12:36.005Z</time>
      </trkpt>
      <trkpt lat="49.43134" lon="3.39599">
        <ele>72.115577697754</ele>
        <time>2021-02-14T19:12:45.607Z</time>
      </trkpt>
      <trkpt lat="49.43145" lon="3.39621">
        <ele>73.039421081543</ele>
        <time>2021-02-14T19:12:55.233Z</time>
      </trkpt>
      <trkpt lat="49.43156" lon="3.39635">
        <ele>73.867286682129</ele>
        <time>2021-02-14T19:13:04.878Z</time>
      </trkpt>
      <trkpt lat="49.43161" lon="3.3964">
        <ele>74.227226257324</ele>
        <time>2021-02-14T19:13:14.531Z</time>
      </trkpt>
      <trkpt lat="49.43176" lon="3.39644">
        <ele>75.175064086914</ele>
        <time>2021-02-14T19:13:24.205Z</time>
      </trkpt>
      <trkpt lat="49.43209" lon="3.39649">
        <ele>76.487464904785</ele>
        <time>2021-02-14T19:13:33.923Z</time>
      </trkpt>
      <trkpt lat="49.43219" lon="3.39653">
        <ele>76.415473937988</ele>
        <time>2021-02-14T19:13:43.655Z</time>
      </trkpt>
      <trkpt lat="49.43229" lon="3.39659">
        <ele>76.367485046387</ele>
        <time>2021-02-14T19:13:53.401Z</time>
      </trkpt>
      <trkpt lat="49.43244" lon="3.39676">
        <ele>76.391479492188</ele>
        <time>2021-02-14T19:14:03.172Z</time>
      </trkpt>
      <trkpt lat="49.43266" lon="3.39718">
        <ele>74.448760986328</ele>
        <time>2021-02-14T19:14:12.990Z</time>
      </trkpt>
      <trkpt lat="49.43307" lon="3.39809">
        <ele>72.528350830078</ele>
        <time>2021-02-14T19:14:22.904Z</time>
      </trkpt>
      <trkpt lat="49.4333" lon="3.39852">
        <ele>73.04426574707</ele>
        <time>2021-02-14T19:14:32.867Z</time>
      </trkpt>
      <trkpt lat="49.43348" lon="3.39886">
        <ele>73.452201843262</ele>
        <time>2021-02-14T19:14:42.868Z</time>
      </trkpt>
      <trkpt lat="49.43366" lon="3.39912">
        <ele>73.76904296875</ele>
        <time>2021-02-14T19:14:52.902Z</time>
      </trkpt>
      <trkpt lat="49.43385" lon="3.39935">
        <ele>74.272956848145</ele>
        <time>2021-02-14T19:15:02.968Z</time>
      </trkpt>
      <trkpt lat="49.43396" lon="3.39946">
        <ele>74.536918640137</ele>
        <time>2021-02-14T19:15:13.052Z</time>
      </trkpt>
      <trkpt lat="49.43411" lon="3.39956">
        <ele>74.836868286133</ele>
        <time>2021-02-14T19:15:23.157Z</time>
      </trkpt>
      <trkpt lat="49.4342" lon="3.39961">
        <ele>75.004837036133</ele>
        <time>2021-02-14T19:15:33.275Z</time>
      </trkpt>
      <trkpt lat="49.43425" lon="3.39968">
        <ele>75.148811340332</ele>
        <time>2021-02-14T19:15:43.402Z</time>
      </trkpt>
      <trkpt lat="49.43434" lon="3.3998">
        <ele>75.400772094727</ele>
        <time>2021-02-14T19:15:53.545Z</time>
      </trkpt>
      <trkpt lat="49.43455" lon="3.40015">
        <ele>75.999938964844</ele>
        <time>2021-02-14T19:16:03.729Z</time>
      </trkpt>
      <trkpt lat="49.43457" lon="3.40023">
        <ele>76.287780761719</ele>
        <time>2021-02-14T19:16:13.921Z</time>
      </trkpt>
    </trkseg>
  </trk>
</gpx>